Time;durP1;ratioP1;P1;durP2;ratioP2;P2;SDS_P1;SDS_P2;PMS_P1;PMS_P2;Temp;Humidity;BMP_temperature;BMP_pressure;BME280_temperature;BME280_humidity;BME280_pressure;Samples;Min_cycle;Max_cycle;Signal;HPM_P1;HPM_P2
2022/10/11 00:01:33;;;;;;;;;;;;;;;;;;5111840;28;19970;-75
2022/10/11 00:03:59;;;;;;;;;;;;;;;;;;5111357;28;19908;-75
2022/10/11 00:06:25;;;;;;;;;;;;;;;;;;5111749;28;19919;-75
2022/10/11 00:08:51;;;;;;;;;;;;;;;;;;5111715;28;19908;-75
2022/10/11 00:14:09;;;;;;;;;;;;;;;;;;5111980;27;19916;-73
2022/10/11 00:17:14;;;;;;;;;;;;;;;;;;5112122;27;20296;-75
2022/10/11 00:21:53;;;;;;;;;;;;;;;;;;5111961;27;19916;-76
2022/10/11 00:27:47;;;;;;;;;;;;;;;;;;5091677;27;20407;-76
2022/10/11 00:31:48;;;;;;;;;;;;;;;;;;5091482;27;19917;-74
2022/10/11 00:34:16;;;;;;;;;;;;;;;;;;5091419;28;19999;-74
2022/10/11 00:36:42;;;;;;;;;;;;;;;;;;5091448;28;20372;-75
2022/10/11 00:39:08;;;;;;;;;;;;;;;;;;5091007;28;19915;-75
2022/10/11 00:41:34;;;;;;;;;;;;;;;;;;5091237;28;19920;-74
2022/10/11 00:44:42;;;;;;;;;;;;;;;;;;5092127;27;19916;-74
2022/10/11 00:47:09;;;;;;;;;;;;;;;;;;5089729;28;20360;-74
2022/10/11 00:49:35;;;;;;;;;;;;;;;;;;5091399;28;19909;-73
2022/10/11 00:52:58;;;;;;;;;;;;;;;;;;5111772;27;19912;-73
2022/10/11 00:55:24;;;;;;;;;;;;;;;;;;5111766;28;20006;-74
2022/10/11 00:57:51;;;;;;;;;;;;;;;;;;5111729;28;20348;-73
2022/10/11 01:00:17;;;;;;;;;;;;;;;;;;5111301;28;19915;-73
2022/10/11 01:03:51;;;;;;;;;;;;;;;;;;5112048;27;19916;-74
2022/10/11 01:06:17;;;;;;;;;;;;;;;;;;5111379;28;19918;-75
2022/10/11 01:08:43;;;;;;;;;;;;;;;;;;5112167;28;19908;-74
2022/10/11 01:11:09;;;;;;;;;;;;;;;;;;5111947;28;20375;-74
2022/10/11 01:13:35;;;;;;;;;;;;;;;;;;5111309;28;20376;-73
2022/10/11 01:16:01;;;;;;;;;;;;;;;;;;5111613;28;19919;-73
2022/10/11 01:18:48;;;;;;;;;;;;;;;;;;5112080;27;19916;-73
2022/10/11 01:21:14;;;;;;;;;;;;;;;;;;5111537;28;20331;-73
2022/10/11 01:23:40;;;;;;;;;;;;;;;;;;5112274;28;19954;-74
2022/10/11 01:26:06;;;;;;;;;;;;;;;;;;5111828;28;19953;-74
2022/10/11 01:28:32;;;;;;;;;;;;;;;;;;5111268;28;19939;-74
2022/10/11 01:30:58;;;;;;;;;;;;;;;;;;5111685;28;19916;-74
2022/10/11 01:34:48;;;;;;;;;;;;;;;;;;5111539;27;19918;-74
2022/10/11 01:37:13;;;;;;;;;;;;;;;;;;5111816;28;20324;-74
2022/10/11 01:39:39;;;;;;;;;;;;;;;;;;5111733;28;19953;-74
2022/10/11 01:42:06;;;;;;;;;;;;;;;;;;5111280;28;19911;-74
2022/10/11 01:44:33;;;;;;;;;;;;;;;;;;5111632;28;19962;-74
2022/10/11 01:48:58;;;;;;;;;;;;;;;;;;5091333;27;19916;-73
2022/10/11 01:52:00;;;;;;;;;;;;;;;;;;5091763;27;19923;-73
2022/10/11 01:54:26;;;;;;;;;;;;;;;;;;5090153;28;20006;-74
2022/10/11 01:58:20;;;;;;;;;;;;;;;;;;5111947;27;19923;-74
2022/10/11 02:01:40;;;;;;;;;;;;;;;;;;5111819;27;19919;-73
2022/10/11 02:05:53;;;;;;;;;;;;;;;;;;5092151;27;19922;-74
2022/10/11 02:08:39;;;;;;;;;;;;;;;;;;5112030;27;19916;-74
2022/10/11 02:11:05;;;;;;;;;;;;;;;;;;5111462;28;20451;-73
2022/10/11 02:17:06;;;;;;;;;;;;;;;;;;5153154;27;20017;-75
2022/10/11 02:19:32;;;;;;;;;;;;;;;;;;5153111;27;19973;-75
2022/10/11 02:24:30;;;;;;;;;;;;;;;;;;5111759;27;20398;-74
2022/10/11 02:26:56;;;;;;;;;;;;;;;;;;5110554;28;19994;-74
2022/10/11 02:29:42;;;;;;;;;;;;;;;;;;5112378;27;20279;-74
2022/10/11 02:32:08;;;;;;;;;;;;;;;;;;5111522;28;19999;-75
2022/10/11 02:34:34;;;;;;;;;;;;;;;;;;5111712;28;19908;-74
2022/10/11 02:37:00;;;;;;;;;;;;;;;;;;5110370;28;19912;-74
2022/10/11 02:42:32;;;;;;;;;;;;;;;;;;5091590;27;19923;-74
2022/10/11 02:44:59;;;;;;;;;;;;;;;;;;5091286;28;19919;-73
2022/10/11 02:49:32;;;;;;;;;;;;;;;;;;5111948;27;20276;-74
2022/10/11 02:51:58;;;;;;;;;;;;;;;;;;5111348;28;20007;-74
2022/10/11 02:54:24;;;;;;;;;;;;;;;;;;5111895;28;19998;-74
2022/10/11 02:56:50;;;;;;;;;;;;;;;;;;5111706;28;19908;-74
2022/10/11 02:59:16;;;;;;;;;;;;;;;;;;5111348;28;19915;-74
2022/10/11 03:01:42;;;;;;;;;;;;;;;;;;5111663;28;20364;-76
2022/10/11 03:04:08;;;;;;;;;;;;;;;;;;5111593;28;20398;-76
2022/10/11 03:10:47;;;;;;;;;;;;;;;;;;5111829;27;19912;-75
2022/10/11 03:13:13;;;;;;;;;;;;;;;;;;5110117;28;20003;-75
2022/10/11 03:15:39;;;;;;;;;;;;;;;;;;5111770;28;19912;-75
2022/10/11 03:18:05;;;;;;;;;;;;;;;;;;5111693;28;19918;-75
2022/10/11 03:20:32;;;;;;;;;;;;;;;;;;5111673;28;20265;-74
2022/10/11 03:22:58;;;;;;;;;;;;;;;;;;5111583;28;20020;-74
2022/10/11 03:25:24;;;;;;;;;;;;;;;;;;5111588;28;19908;-74
2022/10/11 03:27:50;;;;;;;;;;;;;;;;;;5111217;28;19933;-75
2022/10/11 03:30:16;;;;;;;;;;;;;;;;;;5111428;28;19916;-74
2022/10/11 03:32:43;;;;;;;;;;;;;;;;;;5111686;28;19908;-75
2022/10/11 03:40:52;;;;;;;;;;;;;;;;;;5091041;27;19923;-74
2022/10/11 03:45:49;;;;;;;;;;;;;;;;;;5112182;27;19916;-74
2022/10/11 03:48:15;;;;;;;;;;;;;;;;;;5111335;28;20010;-74
2022/10/11 03:50:41;;;;;;;;;;;;;;;;;;5111686;28;19915;-74
2022/10/11 03:54:48;;;;;;;;;;;;;;;;;;5091075;27;19916;-75
2022/10/11 03:57:14;;;;;;;;;;;;;;;;;;5091450;28;20011;-74
2022/10/11 03:59:40;;;;;;;;;;;;;;;;;;5091385;28;19915;-75
2022/10/11 04:02:06;;;;;;;;;;;;;;;;;;5090861;28;20380;-75
2022/10/11 04:04:32;;;;;;;;;;;;;;;;;;5091288;28;20364;-76
2022/10/11 04:08:49;;;;;;;;;;;;;;;;;;5111809;27;19934;-74
2022/10/11 04:11:15;;;;;;;;;;;;;;;;;;5111723;28;20441;-74
2022/10/11 04:15:25;;;;;;;;;;;;;;;;;;5111926;27;19912;-74
2022/10/11 04:17:51;;;;;;;;;;;;;;;;;;5111378;28;20042;-74
2022/10/11 04:20:17;;;;;;;;;;;;;;;;;;5110440;28;19908;-74
2022/10/11 04:22:43;;;;;;;;;;;;;;;;;;5111681;28;20002;-74
2022/10/11 04:25:09;;;;;;;;;;;;;;;;;;5111197;28;19954;-75
2022/10/11 04:27:35;;;;;;;;;;;;;;;;;;5111797;28;19908;-74
2022/10/11 04:30:01;;;;;;;;;;;;;;;;;;5111323;28;19908;-74
2022/10/11 04:32:27;;;;;;;;;;;;;;;;;;5110226;28;19915;-74
2022/10/11 04:34:53;;;;;;;;;;;;;;;;;;5110119;28;19916;-75
2022/10/11 04:37:19;;;;;;;;;;;;;;;;;;5110982;28;20249;-75
2022/10/11 04:39:45;;;;;;;;;;;;;;;;;;5111359;28;19912;-74
2022/10/11 04:42:10;;;;;;;;;;;;;;;;;;5111241;28;19915;-74
2022/10/11 04:44:36;;;;;;;;;;;;;;;;;;5110807;28;20419;-74
2022/10/11 04:47:02;;;;;;;;;;;;;;;;;;5109894;28;20284;-74
2022/10/11 04:49:28;;;;;;;;;;;;;;;;;;5111106;28;19955;-74
2022/10/11 04:51:54;;;;;;;;;;;;;;;;;;5110682;28;19920;-75
2022/10/11 04:54:20;;;;;;;;;;;;;;;;;;5111006;28;19916;-75
2022/10/11 04:56:46;;;;;;;;;;;;;;;;;;5111564;28;20367;-74
2022/10/11 04:59:12;;;;;;;;;;;;;;;;;;5110771;28;19915;-74
2022/10/11 05:01:38;;;;;;;;;;;;;;;;;;5110902;28;19962;-74
2022/10/11 05:04:04;;;;;;;;;;;;;;;;;;5110825;28;19916;-74
2022/10/11 05:06:30;;;;;;;;;;;;;;;;;;5110467;28;19908;-74
2022/10/11 05:08:56;;;;;;;;;;;;;;;;;;5110800;28;19943;-74
2022/10/11 05:11:22;;;;;;;;;;;;;;;;;;5110756;28;19916;-74
2022/10/11 05:13:48;;;;;;;;;;;;;;;;;;5108656;28;19942;-74
2022/10/11 05:16:14;;;;;;;;;;;;;;;;;;5109338;28;19915;-74
2022/10/11 05:20:34;;;;;;;;;;;;;;;;;;5111703;27;20291;-73
2022/10/11 05:22:59;;;;;;;;;;;;;;;;;;5111739;28;20010;-75
2022/10/11 05:27:24;;;;;;;;;;;;;;;;;;5091290;27;19912;-74
2022/10/11 05:31:26;;;;;;;;;;;;;;;;;;5112036;27;19916;-74
2022/10/11 05:33:52;;;;;;;;;;;;;;;;;;5111477;28;19998;-76
2022/10/11 05:40:10;;;;;;;;;;;;;;;;;;5091116;27;19916;-74
2022/10/11 05:42:36;;;;;;;;;;;;;;;;;;5091771;28;20007;-74
2022/10/11 05:45:02;;;;;;;;;;;;;;;;;;5090046;28;20307;-74
2022/10/11 05:47:28;;;;;;;;;;;;;;;;;;5090904;28;19991;-75
2022/10/11 05:49:54;;;;;;;;;;;;;;;;;;5091145;28;19935;-74
2022/10/11 05:52:20;;;;;;;;;;;;;;;;;;5089886;28;20234;-74
2022/10/11 05:54:46;;;;;;;;;;;;;;;;;;5090636;28;19908;-74
2022/10/11 05:57:12;;;;;;;;;;;;;;;;;;5091110;28;20420;-74
2022/10/11 05:59:38;;;;;;;;;;;;;;;;;;5091004;28;20373;-74
2022/10/11 06:02:04;;;;;;;;;;;;;;;;;;5089453;28;20258;-74
2022/10/11 06:04:30;;;;;;;;;;;;;;;;;;5091655;28;19912;-75
2022/10/11 06:06:56;;;;;;;;;;;;;;;;;;5091098;28;19953;-79
2022/10/11 06:10:58;;;;;;;;;;;;;;;;;;5091475;28;19912;-74
2022/10/11 06:16:10;;;;;;;;;;;;;;;;;;5031101;27;20016;-74
2022/10/11 06:18:36;;;;;;;;;;;;;;;;;;5027753;28;20270;-74
2022/10/11 06:21:02;;;;;;;;;;;;;;;;;;5027888;28;19946;-76
2022/10/11 06:23:28;;;;;;;;;;;;;;;;;;5009732;28;19913;-75
2022/10/11 06:27:55;;;;;;;;;;;;;;;;;;5153311;27;19912;-76
2022/10/11 06:30:21;;;;;;;;;;;;;;;;;;5152553;27;19911;-74
2022/10/11 06:35:57;;;;;;;;;;;;;;;;;;5112544;27;20272;-75
2022/10/11 06:38:23;;;;;;;;;;;;;;;;;;5111343;28;19916;-75
2022/10/11 06:40:49;;;;;;;;;;;;;;;;;;5111654;28;19912;-75
2022/10/11 06:43:14;;;;;;;;;;;;;;;;;;5111622;28;19908;-75
2022/10/11 06:45:40;;;;;;;;;;;;;;;;;;5111158;28;19913;-73
2022/10/11 06:48:06;;;;;;;;;;;;;;;;;;5111550;28;20335;-75
2022/10/11 06:50:32;;;;;;;;;;;;;;;;;;5111089;28;19912;-73
2022/10/11 06:52:58;;;;;;;;;;;;;;;;;;5111370;28;19908;-74
2022/10/11 06:55:24;;;;;;;;;;;;;;;;;;5111296;28;20027;-74
2022/10/11 06:57:50;;;;;;;;;;;;;;;;;;5111218;28;19912;-75
2022/10/11 07:01:31;;;;;;;;;;;;;;;;;;5030895;27;19913;-75
2022/10/11 07:03:57;;;;;;;;;;;;;;;;;;5027812;28;19967;-75
2022/10/11 07:08:15;;;;;;;;;;;;;;;;;;5152964;27;19956;-74
2022/10/11 07:10:41;;;;;;;;;;;;;;;;;;5134355;27;19943;-74
2022/10/11 07:13:07;;;;;;;;;;;;;;;;;;5152514;27;20323;-75
2022/10/11 07:15:33;;;;;;;;;;;;;;;;;;5152838;27;19914;-74
2022/10/11 07:17:59;;;;;;;;;;;;;;;;;;5153343;27;19907;-74
2022/10/11 07:20:25;;;;;;;;;;;;;;;;;;5152632;27;19964;-75
2022/10/11 07:22:51;;;;;;;;;;;;;;;;;;5152734;27;20021;-74
2022/10/11 07:25:17;;;;;;;;;;;;;;;;;;5153012;27;19911;-74
2022/10/11 07:27:43;;;;;;;;;;;;;;;;;;5152192;27;20374;-74
2022/10/11 07:32:21;;;;;;;;;;;;;;;;;;5110620;27;20007;-76
2022/10/11 07:34:48;;;;;;;;;;;;;;;;;;5072918;28;19943;-75
2022/10/11 07:37:14;;;;;;;;;;;;;;;;;;5091332;28;19962;-74
2022/10/11 07:43:28;;;;;;;;;;;;;;;;;;5113045;27;19912;-74
2022/10/11 07:45:54;;;;;;;;;;;;;;;;;;5111750;28;20045;-74
2022/10/11 07:50:41;;;;;;;;;;;;;;;;;;5130779;27;19961;-74
2022/10/11 07:53:07;;;;;;;;;;;;;;;;;;5085010;28;19920;-74
2022/10/11 07:55:33;;;;;;;;;;;;;;;;;;5069453;28;19908;-74
2022/10/11 08:00:27;;;;;;;;;;;;;;;;;;5153711;27;19945;-76
2022/10/11 08:02:53;;;;;;;;;;;;;;;;;;5152549;27;19943;-76
2022/10/11 08:05:19;;;;;;;;;;;;;;;;;;5152791;27;19966;-75
2022/10/11 08:07:47;;;;;;;;;;;;;;;;;;5152752;27;19913;-76
2022/10/11 08:10:13;;;;;;;;;;;;;;;;;;5152312;27;20331;-75
2022/10/11 08:12:39;;;;;;;;;;;;;;;;;;5153173;27;19914;-75
2022/10/11 08:16:55;;;;;;;;;;;;;;;;;;5131073;27;20161;-74
2022/10/11 08:20:51;;;;;;;;;;;;;;;;;;5031062;27;20370;-75
2022/10/11 08:27:46;;;;;;;;;;;;;;;;;;5120145;27;19923;-75
2022/10/11 08:31:14;;;;;;;;;;;;;;;;;;5092997;27;19912;-75
2022/10/11 08:33:40;;;;;;;;;;;;;;;;;;5091325;28;19917;-76
2022/10/11 08:36:06;;;;;;;;;;;;;;;;;;5090936;28;19909;-76
2022/10/11 08:43:21;;;;;;;;;;;;;;;;;;5130131;28;19927;-74
2022/10/11 08:48:06;;;;;;;;;;;;;;;;;;5100666;27;19916;-73
2022/10/11 08:50:32;;;;;;;;;;;;;;;;;;5091005;28;19912;-75
2022/10/11 08:52:58;;;;;;;;;;;;;;;;;;5091372;28;20258;-76
2022/10/11 08:55:24;;;;;;;;;;;;;;;;;;5091617;28;19908;-76
2022/10/11 08:57:50;;;;;;;;;;;;;;;;;;5090923;28;20353;-75
2022/10/11 09:00:16;;;;;;;;;;;;;;;;;;5089987;28;19909;-76
2022/10/11 09:02:42;;;;;;;;;;;;;;;;;;5091098;28;20015;-76
2022/10/11 09:05:08;;;;;;;;;;;;;;;;;;5090789;28;19908;-76
2022/10/11 09:07:34;;;;;;;;;;;;;;;;;;5091007;28;20380;-76
2022/10/11 09:10:00;;;;;;;;;;;;;;;;;;5091502;28;19969;-76
2022/10/11 09:12:26;;;;;;;;;;;;;;;;;;5089214;28;20376;-76
2022/10/11 09:14:52;;;;;;;;;;;;;;;;;;5090951;28;19908;-75
2022/10/11 09:17:18;;;;;;;;;;;;;;;;;;5090866;28;19954;-76
2022/10/11 09:19:44;;;;;;;;;;;;;;;;;;5090692;28;20364;-76
2022/10/11 09:23:20;;;;;;;;;;;;;;;;;;5091464;27;19912;-75
2022/10/11 09:29:23;;;;;;;;;;;;;;;;;;5091663;27;19916;-75
2022/10/11 09:31:49;;;;;;;;;;;;;;;;;;5091378;28;19920;-75
2022/10/11 09:34:15;;;;;;;;;;;;;;;;;;5090951;28;19908;-76
2022/10/11 09:40:13;;;;;;;;;;;;;;;;;;5091459;27;19938;-76
2022/10/11 09:42:39;;;;;;;;;;;;;;;;;;5091477;28;20436;-76
2022/10/11 09:45:05;;;;;;;;;;;;;;;;;;5091384;28;19995;-76
2022/10/11 09:47:31;;;;;;;;;;;;;;;;;;5091026;28;20311;-74
2022/10/11 09:49:57;;;;;;;;;;;;;;;;;;5091219;28;19908;-74
2022/10/11 09:52:23;;;;;;;;;;;;;;;;;;5091775;28;19912;-75
2022/10/11 09:54:49;;;;;;;;;;;;;;;;;;5091006;28;20396;-76
2022/10/11 09:57:15;;;;;;;;;;;;;;;;;;5090206;28;19955;-75
2022/10/11 09:59:42;;;;;;;;;;;;;;;;;;5091155;28;20015;-76
2022/10/11 10:02:08;;;;;;;;;;;;;;;;;;5090618;28;19912;-75
2022/10/11 10:04:34;;;;;;;;;;;;;;;;;;5091005;28;20048;-75
2022/10/11 10:07:00;;;;;;;;;;;;;;;;;;5090973;28;19909;-76
2022/10/11 10:09:26;;;;;;;;;;;;;;;;;;5090668;28;19951;-75
2022/10/11 10:11:52;;;;;;;;;;;;;;;;;;5089636;28;19909;-74
2022/10/11 10:15:40;;;;;;;;;;;;;;;;;;5111892;27;19912;-76
2022/10/11 10:18:09;;;;;;;;;;;;;;;;;;5111853;28;19918;-76
2022/10/11 10:20:35;;;;;;;;;;;;;;;;;;5111715;28;19914;-74
2022/10/11 10:23:01;;;;;;;;;;;;;;;;;;5111230;28;19998;-75
2022/10/11 10:26:30;;;;;;;;;;;;;;;;;;5091573;28;20407;-75
2022/10/11 10:28:56;;;;;;;;;;;;;;;;;;5091034;28;19995;-75
2022/10/11 10:31:22;;;;;;;;;;;;;;;;;;5091330;28;19944;-75
2022/10/11 10:36:51;;;;;;;;;;;;;;;;;;5091306;27;19919;-75
2022/10/11 10:39:16;;;;;;;;;;;;;;;;;;5092227;28;20429;-75
2022/10/11 10:41:42;;;;;;;;;;;;;;;;;;5091165;28;19914;-74
2022/10/11 10:47:02;;;;;;;;;;;;;;;;;;5091663;27;19913;-75
2022/10/11 10:49:28;;;;;;;;;;;;;;;;;;5091442;28;20015;-75
2022/10/11 10:51:56;;;;;;;;;;;;;;;;;;5090964;28;19912;-75
2022/10/11 10:54:22;;;;;;;;;;;;;;;;;;5090045;28;20283;-75
2022/10/11 10:57:28;;;;;;;;;;;;;;;;;;5091575;27;19919;-75
2022/10/11 11:01:03;;;;;;;;;;;;;;;;;;5111964;27;19919;-76
2022/10/11 11:03:29;;;;;;;;;;;;;;;;;;5111630;28;20439;-75
2022/10/11 11:05:55;;;;;;;;;;;;;;;;;;5111211;28;19908;-75
2022/10/11 11:08:21;;;;;;;;;;;;;;;;;;5111698;28;19966;-76
2022/10/11 11:10:47;;;;;;;;;;;;;;;;;;5110273;28;19912;-74
2022/10/11 11:13:13;;;;;;;;;;;;;;;;;;5111105;28;19950;-75
2022/10/11 11:18:04;;;;;;;;;;;;;;;;;;5111938;27;19916;-75
2022/10/11 11:21:58;;;;;;;;;;;;;;;;;;5092219;27;19923;-76
2022/10/11 11:24:24;;;;;;;;;;;;;;;;;;5091583;28;19923;-75
2022/10/11 11:29:02;;;;;;;;;;;;;;;;;;5091854;27;19916;-75
2022/10/11 11:31:28;;;;;;;;;;;;;;;;;;5090075;28;19919;-76
2022/10/11 11:33:54;;;;;;;;;;;;;;;;;;5090970;28;20003;-76
2022/10/11 11:36:20;;;;;;;;;;;;;;;;;;5091269;28;19995;-76
2022/10/11 11:38:46;;;;;;;;;;;;;;;;;;5089915;28;19954;-76
2022/10/11 11:41:12;;;;;;;;;;;;;;;;;;5089655;28;19913;-76
2022/10/11 11:44:13;;;;;;;;;;;;;;;;;;5112184;27;19916;-74
2022/10/11 11:46:39;;;;;;;;;;;;;;;;;;5111346;28;20455;-74
2022/10/11 11:52:56;;;;;;;;;;;;;;;;;;5111758;27;19916;-76
2022/10/11 11:55:22;;;;;;;;;;;;;;;;;;5111369;28;20460;-75
2022/10/11 11:57:48;;;;;;;;;;;;;;;;;;5111971;28;19908;-75
2022/10/11 12:00:14;;;;;;;;;;;;;;;;;;5111297;28;19991;-76
2022/10/11 12:02:40;;;;;;;;;;;;;;;;;;5110371;28;20324;-76
2022/10/11 12:05:06;;;;;;;;;;;;;;;;;;5111770;28;19930;-75
2022/10/11 12:08:41;;;;;;;;;;;;;;;;;;5111663;27;19922;-76
2022/10/11 12:11:07;;;;;;;;;;;;;;;;;;5111736;28;20428;-76
2022/10/11 12:13:36;;;;;;;;;;;;;;;;;;5111670;28;19916;-76
2022/10/11 12:18:53;;;;;;;;;;;;;;;;;;5111968;27;19916;-74
2022/10/11 12:21:34;;;;;;;;;;;;;;;;;;5112037;27;19920;-74
2022/10/11 12:24:00;;;;;;;;;;;;;;;;;;5111721;28;20341;-74
2022/10/11 12:29:23;;;;;;;;;;;;;;;;;;5152788;27;19918;-74
2022/10/11 12:31:49;;;;;;;;;;;;;;;;;;5152903;27;19918;-76
2022/10/11 12:34:15;;;;;;;;;;;;;;;;;;5153123;27;19998;-75
2022/10/11 12:36:41;;;;;;;;;;;;;;;;;;5152692;27;20278;-75
2022/10/11 12:41:01;;;;;;;;;;;;;;;;;;5112203;27;20295;-76
2022/10/11 12:46:48;;;;;;;;;;;;;;;;;;5091826;27;19917;-75
2022/10/11 12:49:14;;;;;;;;;;;;;;;;;;5091392;28;20066;-75
2022/10/11 12:51:40;;;;;;;;;;;;;;;;;;5089725;28;19935;-75
2022/10/11 12:54:06;;;;;;;;;;;;;;;;;;5091167;28;19912;-75
2022/10/11 12:56:32;;;;;;;;;;;;;;;;;;5091006;28;20002;-75
2022/10/11 12:58:58;;;;;;;;;;;;;;;;;;5091251;28;19955;-75
2022/10/11 13:01:25;;;;;;;;;;;;;;;;;;5091719;28;20360;-75
2022/10/11 13:04:44;;;;;;;;;;;;;;;;;;5152679;27;19912;-76
2022/10/11 13:07:10;;;;;;;;;;;;;;;;;;5153039;27;19961;-75
2022/10/11 13:09:39;;;;;;;;;;;;;;;;;;5134440;27;20363;-76
2022/10/11 13:12:05;;;;;;;;;;;;;;;;;;5152429;27;19908;-76
2022/10/11 13:14:31;;;;;;;;;;;;;;;;;;5152799;27;19952;-75
2022/10/11 13:19:28;;;;;;;;;;;;;;;;;;5111566;27;19916;-75
2022/10/11 13:21:54;;;;;;;;;;;;;;;;;;5111816;28;20069;-75
2022/10/11 13:24:21;;;;;;;;;;;;;;;;;;5111700;28;19916;-74
2022/10/11 13:26:47;;;;;;;;;;;;;;;;;;5111314;28;20006;-74
2022/10/11 13:29:13;;;;;;;;;;;;;;;;;;5111913;28;20400;-74
2022/10/11 13:33:41;;;;;;;;;;;;;;;;;;5111422;27;19916;-75
2022/10/11 13:36:08;;;;;;;;;;;;;;;;;;5111684;28;20057;-76
2022/10/11 13:39:41;;;;;;;;;;;;;;;;;;5111583;27;19916;-75
2022/10/11 13:43:14;;;;;;;;;;;;;;;;;;5112502;27;19916;-76
2022/10/11 13:45:40;;;;;;;;;;;;;;;;;;5110038;28;19912;-75
2022/10/11 13:50:45;;;;;;;;;;;;;;;;;;5091638;27;19923;-75
2022/10/11 13:54:09;;;;;;;;;;;;;;;;;;5111515;27;20376;-75
2022/10/11 13:56:35;;;;;;;;;;;;;;;;;;5111675;28;20006;-75
2022/10/11 13:59:01;;;;;;;;;;;;;;;;;;5111886;28;19944;-75
2022/10/11 14:06:30;;;;;;;;;;;;;;;;;;5091451;27;20296;-75
2022/10/11 14:08:58;;;;;;;;;;;;;;;;;;5091066;28;20004;-78
2022/10/11 14:11:24;;;;;;;;;;;;;;;;;;5091340;28;19998;-77
2022/10/11 14:15:47;;;;;;;;;;;;;;;;;;5111438;27;19922;-75
2022/10/11 14:18:42;;;;;;;;;;;;;;;;;;5112077;27;19923;-73
2022/10/11 14:21:08;;;;;;;;;;;;;;;;;;5111356;28;19999;-74
2022/10/11 14:23:34;;;;;;;;;;;;;;;;;;5111933;28;19908;-75
2022/10/11 14:26:00;;;;;;;;;;;;;;;;;;5110439;28;20276;-74
2022/10/11 14:28:26;;;;;;;;;;;;;;;;;;5111151;28;19908;-74
2022/10/11 14:30:52;;;;;;;;;;;;;;;;;;5111505;28;19974;-74
2022/10/11 14:33:18;;;;;;;;;;;;;;;;;;5111493;28;19915;-75
2022/10/11 14:39:09;;;;;;;;;;;;;;;;;;5091631;27;20287;-76
2022/10/11 14:43:55;;;;;;;;;;;;;;;;;;5111420;27;20283;-74
2022/10/11 14:46:21;;;;;;;;;;;;;;;;;;5112256;28;19912;-74
2022/10/11 14:48:47;;;;;;;;;;;;;;;;;;5110293;28;19908;-74
2022/10/11 14:51:13;;;;;;;;;;;;;;;;;;5111316;28;20008;-75
2022/10/11 14:53:44;;;;;;;;;;;;;;;;;;5111487;28;19908;-75
2022/10/11 14:56:10;;;;;;;;;;;;;;;;;;5111159;28;19908;-75
2022/10/11 14:59:46;;;;;;;;;;;;;;;;;;5112075;27;19916;-75
2022/10/11 15:02:12;;;;;;;;;;;;;;;;;;5110407;28;20003;-75
2022/10/11 15:04:38;;;;;;;;;;;;;;;;;;5109870;28;19908;-75
2022/10/11 15:07:57;;;;;;;;;;;;;;;;;;5124461;27;19917;-76
2022/10/11 15:10:23;;;;;;;;;;;;;;;;;;5091451;28;20456;-74
2022/10/11 15:12:49;;;;;;;;;;;;;;;;;;5091273;28;19916;-75
2022/10/11 15:15:19;;;;;;;;;;;;;;;;;;5091284;28;19908;-75
2022/10/11 15:17:44;;;;;;;;;;;;;;;;;;5090790;28;20373;-75
2022/10/11 15:20:10;;;;;;;;;;;;;;;;;;5106811;28;19915;-75
2022/10/11 15:24:52;;;;;;;;;;;;;;;;;;5091236;27;19939;-75
2022/10/11 15:27:18;;;;;;;;;;;;;;;;;;5091387;28;20432;-75
2022/10/11 15:29:44;;;;;;;;;;;;;;;;;;5091323;28;19999;-75
2022/10/11 15:32:10;;;;;;;;;;;;;;;;;;5089611;28;19915;-76
2022/10/11 15:35:42;;;;;;;;;;;;;;;;;;5153170;27;20010;-76
2022/10/11 15:38:08;;;;;;;;;;;;;;;;;;5152874;27;20003;-76
2022/10/11 15:40:34;;;;;;;;;;;;;;;;;;5152815;27;19907;-75
2022/10/11 15:43:00;;;;;;;;;;;;;;;;;;5134241;27;19932;-76
2022/10/11 15:45:26;;;;;;;;;;;;;;;;;;5152451;27;20360;-76
2022/10/11 15:47:52;;;;;;;;;;;;;;;;;;5152659;27;19960;-76
2022/10/11 15:50:32;;;;;;;;;;;;;;;;;;5134180;27;20303;-76
2022/10/11 15:52:58;;;;;;;;;;;;;;;;;;5152627;27;19907;-75
2022/10/11 15:55:24;;;;;;;;;;;;;;;;;;5133980;27;19923;-75
2022/10/11 15:57:50;;;;;;;;;;;;;;;;;;5152474;27;20294;-75
2022/10/11 16:00:16;;;;;;;;;;;;;;;;;;5152054;27;19952;-76
2022/10/11 16:02:42;;;;;;;;;;;;;;;;;;5152347;27;19907;-75
2022/10/11 16:06:34;;;;;;;;;;;;;;;;;;5091156;27;20407;-75
2022/10/11 16:11:34;;;;;;;;;;;;;;;;;;5111729;27;19918;-77
2022/10/11 16:14:00;;;;;;;;;;;;;;;;;;5111311;28;19999;-76
2022/10/11 16:16:26;;;;;;;;;;;;;;;;;;5111601;28;19915;-77
2022/10/11 16:20:29;;;;;;;;;;;;;;;;;;5111969;27;19916;-76
2022/10/11 16:22:55;;;;;;;;;;;;;;;;;;5111714;28;19995;-77
2022/10/11 16:25:21;;;;;;;;;;;;;;;;;;5111671;28;19912;-75
2022/10/11 16:27:47;;;;;;;;;;;;;;;;;;5111398;28;19908;-77
2022/10/11 16:30:13;;;;;;;;;;;;;;;;;;5110386;28;19908;-77
2022/10/11 16:32:39;;;;;;;;;;;;;;;;;;5111520;28;19919;-77
2022/10/11 16:35:05;;;;;;;;;;;;;;;;;;5111116;28;19908;-77
2022/10/11 16:37:31;;;;;;;;;;;;;;;;;;5111451;28;19908;-77
2022/10/11 16:40:43;;;;;;;;;;;;;;;;;;5092053;27;19922;-75
2022/10/11 16:43:55;;;;;;;;;;;;;;;;;;5112571;27;20390;-77
2022/10/11 16:46:21;;;;;;;;;;;;;;;;;;5110517;28;19946;-74
2022/10/11 16:48:47;;;;;;;;;;;;;;;;;;5111269;28;19912;-74
2022/10/11 16:51:13;;;;;;;;;;;;;;;;;;5111633;28;19908;-74
2022/10/11 16:55:27;;;;;;;;;;;;;;;;;;5112739;27;19916;-75
2022/10/11 16:57:53;;;;;;;;;;;;;;;;;;5111397;28;20015;-75
2022/10/11 17:01:40;;;;;;;;;;;;;;;;;;5112609;27;19923;-74
2022/10/11 17:04:06;;;;;;;;;;;;;;;;;;5109987;28;19912;-75
2022/10/11 17:06:32;;;;;;;;;;;;;;;;;;5111711;28;19908;-75
2022/10/11 17:08:57;;;;;;;;;;;;;;;;;;5112016;28;19908;-75
2022/10/11 17:11:23;;;;;;;;;;;;;;;;;;5111412;28;20372;-75
2022/10/11 17:14:47;;;;;;;;;;;;;;;;;;5091949;27;19916;-75
2022/10/11 17:17:12;;;;;;;;;;;;;;;;;;5089727;28;20237;-75
2022/10/11 17:20:49;;;;;;;;;;;;;;;;;;5112229;27;19938;-75
2022/10/11 17:24:14;;;;;;;;;;;;;;;;;;5111795;27;19922;-74
2022/10/11 17:26:40;;;;;;;;;;;;;;;;;;5110445;28;20002;-74
2022/10/11 17:29:48;;;;;;;;;;;;;;;;;;5091919;27;19916;-75
2022/10/11 17:34:00;;;;;;;;;;;;;;;;;;5111799;27;20300;-77
2022/10/11 17:36:26;;;;;;;;;;;;;;;;;;5110510;28;20288;-75
2022/10/11 17:42:21;;;;;;;;;;;;;;;;;;5111827;27;20384;-74
2022/10/11 17:44:47;;;;;;;;;;;;;;;;;;5111305;28;20003;-75
2022/10/11 17:47:13;;;;;;;;;;;;;;;;;;5111934;28;20310;-74
2022/10/11 17:50:22;;;;;;;;;;;;;;;;;;5112448;27;19922;-76
2022/10/11 17:52:48;;;;;;;;;;;;;;;;;;5110209;28;20347;-75
2022/10/11 17:55:14;;;;;;;;;;;;;;;;;;5111705;28;19908;-75
2022/10/11 17:57:40;;;;;;;;;;;;;;;;;;5111689;28;19908;-75
2022/10/11 18:00:06;;;;;;;;;;;;;;;;;;5111285;28;20421;-75
2022/10/11 18:02:32;;;;;;;;;;;;;;;;;;5111710;28;19956;-75
2022/10/11 18:04:58;;;;;;;;;;;;;;;;;;5111611;28;19908;-75
2022/10/11 18:07:24;;;;;;;;;;;;;;;;;;5109799;28;19914;-75
2022/10/11 18:09:50;;;;;;;;;;;;;;;;;;5111385;28;20272;-75
2022/10/11 18:12:16;;;;;;;;;;;;;;;;;;5110180;28;20292;-75
2022/10/11 18:15:33;;;;;;;;;;;;;;;;;;5091711;27;19916;-75
2022/10/11 18:17:59;;;;;;;;;;;;;;;;;;5090202;28;20011;-75
2022/10/11 18:20:25;;;;;;;;;;;;;;;;;;5091101;28;19919;-75
2022/10/11 18:22:52;;;;;;;;;;;;;;;;;;5091623;28;19908;-74
2022/10/11 18:25:18;;;;;;;;;;;;;;;;;;5091202;28;19916;-75
2022/10/11 18:27:44;;;;;;;;;;;;;;;;;;5090743;28;20376;-76
2022/10/11 18:30:46;;;;;;;;;;;;;;;;;;5112021;27;20398;-74
2022/10/11 18:36:39;;;;;;;;;;;;;;;;;;5112012;27;19920;-75
2022/10/11 18:41:35;;;;;;;;;;;;;;;;;;5111904;27;19917;-74
2022/10/11 18:44:00;;;;;;;;;;;;;;;;;;5111816;28;19912;-74
2022/10/11 18:46:26;;;;;;;;;;;;;;;;;;5111745;28;20432;-75
2022/10/11 18:48:52;;;;;;;;;;;;;;;;;;5111401;28;19912;-76
2022/10/11 18:51:18;;;;;;;;;;;;;;;;;;5111599;28;19908;-75
2022/10/11 18:53:44;;;;;;;;;;;;;;;;;;5111632;28;19956;-75
2022/10/11 18:58:31;;;;;;;;;;;;;;;;;;5112584;27;20360;-76
2022/10/11 19:00:57;;;;;;;;;;;;;;;;;;5111686;28;20007;-74
2022/10/11 19:03:23;;;;;;;;;;;;;;;;;;5110124;28;19908;-76
2022/10/11 19:05:50;;;;;;;;;;;;;;;;;;5111710;28;19951;-75
2022/10/11 19:08:15;;;;;;;;;;;;;;;;;;5111621;28;19954;-75
2022/10/11 19:10:41;;;;;;;;;;;;;;;;;;5111196;28;20299;-75
2022/10/11 19:13:23;;;;;;;;;;;;;;;;;;5111843;27;19916;-74
2022/10/11 19:15:49;;;;;;;;;;;;;;;;;;5111736;28;20396;-74
2022/10/11 19:18:15;;;;;;;;;;;;;;;;;;5111316;28;20007;-74
2022/10/11 19:20:41;;;;;;;;;;;;;;;;;;5110498;28;19923;-74
2022/10/11 19:23:07;;;;;;;;;;;;;;;;;;5112187;28;20352;-74
2022/10/11 19:25:33;;;;;;;;;;;;;;;;;;5111170;28;20272;-75
2022/10/11 19:27:59;;;;;;;;;;;;;;;;;;5111518;28;19977;-75
2022/10/11 19:31:49;;;;;;;;;;;;;;;;;;5111661;27;19912;-74
2022/10/11 19:34:15;;;;;;;;;;;;;;;;;;5110479;28;20003;-75
2022/10/11 19:36:41;;;;;;;;;;;;;;;;;;5111705;28;19911;-75
2022/10/11 19:39:07;;;;;;;;;;;;;;;;;;5111287;28;19912;-74
2022/10/11 19:43:37;;;;;;;;;;;;;;;;;;5091524;27;19916;-74
2022/10/11 19:46:02;;;;;;;;;;;;;;;;;;5091068;28;20448;-74
2022/10/11 19:48:29;;;;;;;;;;;;;;;;;;5091306;28;19908;-74
2022/10/11 19:50:55;;;;;;;;;;;;;;;;;;5091315;28;20364;-75
2022/10/11 19:53:20;;;;;;;;;;;;;;;;;;5091126;28;19954;-75
2022/10/11 19:56:07;;;;;;;;;;;;;;;;;;5092469;27;19922;-76
2022/10/11 19:58:33;;;;;;;;;;;;;;;;;;5089712;28;20003;-75
2022/10/11 20:01:15;;;;;;;;;;;;;;;;;;5111895;27;19923;-76
2022/10/11 20:05:35;;;;;;;;;;;;;;;;;;5112048;27;20275;-76